Time;durP1;ratioP1;P1;durP2;ratioP2;P2;SDS_P1;SDS_P2;PMS_P1;PMS_P2;Temp;Humidity;BMP_temperature;BMP_pressure;BME280_temperature;BME280_humidity;BME280_pressure;Samples;Min_cycle;Max_cycle;Signal;HPM_P1;HPM_P2
2022/02/14 00:02:05;;;;;;;8.13;2.78;;;;;;;-0.46;42.10;92536.31;2049996;70;20249;-70
2022/02/14 00:04:31;;;;;;;5.53;2.70;;;;;;;-0.33;42.29;92534.19;2049035;70;20621;-68
2022/02/14 00:06:57;;;;;;;5.18;2.53;;;;;;;-0.32;42.66;92535.69;2048188;70;20158;-70
2022/02/14 00:09:23;;;;;;;5.28;2.85;;;;;;;-0.21;41.40;92523.56;2049784;70;20525;-77
2022/02/14 00:11:49;;;;;;;4.80;3.10;;;;;;;-0.26;40.93;92525.22;2048258;70;20138;-73
2022/02/14 00:14:14;;;;;;;5.00;3.00;;;;;;;-0.34;41.97;92534.75;2048491;70;20143;-69
2022/02/14 00:16:40;;;;;;;6.10;3.20;;;;;;;-0.32;41.46;92535.69;2048401;70;20185;-71
2022/02/14 00:19:06;;;;;;;6.20;3.38;;;;;;;-0.43;40.74;92535.25;2048350;70;20138;-75
2022/02/14 00:21:32;;;;;;;7.38;3.80;;;;;;;-0.48;40.97;92528.56;2048232;70;20183;-69
2022/02/14 00:23:57;;;;;;;6.93;3.50;;;;;;;-0.38;40.75;92526.78;2048406;70;20222;-71
2022/02/14 00:26:23;;;;;;;7.35;3.22;;;;;;;-0.41;40.73;92527.13;2048214;70;20147;-72
2022/02/14 00:28:49;;;;;;;5.88;2.90;;;;;;;-0.39;40.99;92522.53;2047758;70;20146;-68
2022/02/14 00:31:15;;;;;;;4.65;3.00;;;;;;;-0.42;42.19;92520.84;2047614;70;20143;-68
2022/02/14 00:33:41;;;;;;;4.70;2.92;;;;;;;-0.47;41.55;92519.00;2048371;70;20511;-68
2022/02/14 00:36:08;;;;;;;5.47;2.85;;;;;;;-0.48;42.44;92511.25;2047994;70;20603;-68
2022/02/14 00:38:34;;;;;;;8.40;3.70;;;;;;;-0.73;42.37;92519.19;2048234;70;20209;-68
2022/02/14 00:41:00;;;;;;;8.73;3.70;;;;;;;-0.81;42.77;92506.06;2048282;70;20146;-69
2022/02/14 00:43:25;;;;;;;7.55;2.92;;;;;;;-0.83;44.34;92513.41;2045034;70;20163;-68
2022/02/14 00:45:51;;;;;;;6.28;2.65;;;;;;;-0.66;42.96;92499.88;2048023;70;20569;-75
2022/02/14 00:48:17;;;;;;;5.43;2.72;;;;;;;-0.67;42.40;92498.41;2048263;70;20146;-74
2022/02/14 00:50:43;;;;;;;5.10;2.33;;;;;;;-0.57;42.14;92495.88;2048202;70;20174;-75
2022/02/14 00:53:09;;;;;;;4.13;2.33;;;;;;;-0.70;42.05;92490.47;2048074;70;20170;-71
2022/02/14 00:55:36;;;;;;;6.18;2.20;;;;;;;-0.57;41.76;92495.88;2048128;70;20622;-68
2022/02/14 00:58:03;;;;;;;5.80;2.90;;;;;;;-0.65;41.82;92497.84;2044951;70;20161;-71
2022/02/14 01:00:29;;;;;;;6.85;2.75;;;;;;;-0.64;41.33;92504.84;2048080;70;20494;-69
2022/02/14 01:02:56;;;;;;;4.60;2.50;;;;;;;-0.48;41.38;92495.38;2048210;70;20213;-68
2022/02/14 01:05:21;;;;;;;6.47;2.92;;;;;;;-0.73;41.34;92500.59;2048112;70;20151;-75
2022/02/14 01:07:47;;;;;;;4.57;2.83;;;;;;;-0.78;41.14;92499.44;2044845;70;20165;-68
2022/02/14 01:10:13;;;;;;;5.50;2.38;;;;;;;-0.63;40.88;92504.34;2048316;70;20249;-69
2022/02/14 01:12:41;;;;;;;6.05;2.95;;;;;;;-0.69;41.03;92500.22;2048222;70;20208;-70
2022/02/14 01:15:08;;;;;;;6.35;3.17;;;;;;;-0.71;41.11;92502.81;2048160;70;20150;-73
2022/02/14 01:17:35;;;;;;;5.13;2.78;;;;;;;-0.73;42.03;92511.66;2047934;70;20178;-74
2022/02/14 01:20:03;;;;;;;5.35;2.63;;;;;;;-0.71;42.37;92500.78;2048047;70;20148;-71
2022/02/14 01:22:29;;;;;;;6.90;2.97;;;;;;;-0.83;41.72;92502.34;2048126;70;20250;-72
2022/02/14 01:24:55;;;;;;;4.78;2.45;;;;;;;-0.73;42.28;92500.59;2048133;70;20614;-72
2022/02/14 01:27:20;;;;;;;5.00;2.20;;;;;;;-0.64;41.67;92511.16;2048187;70;20131;-71
2022/02/14 01:29:46;;;;;;;9.45;3.83;;;;;;;-1.07;42.50;92514.50;2047978;70;20150;-70
2022/02/14 01:32:12;;;;;;;5.82;3.35;;;;;;;-1.03;42.80;92498.31;2047974;70;20577;-69
2022/02/14 01:34:37;;;;;;;8.05;3.25;;;;;;;-0.95;43.42;92501.16;2044927;70;20162;-69
2022/02/14 01:37:03;;;;;;;7.88;2.85;;;;;;;-0.94;42.58;92499.88;2048092;70;20548;-69
2022/02/14 01:39:29;;;;;;;4.95;2.88;;;;;;;-0.88;42.58;92484.63;2048198;70;20213;-69
2022/02/14 01:41:56;;;;;;;4.47;2.65;;;;;;;-0.79;42.47;92491.69;2048201;70;20174;-69
2022/02/14 01:44:54;;;;;;;6.00;2.80;;;;;;;-0.75;41.98;92491.34;2044727;70;20146;-69
2022/02/14 01:47:22;;;;;;;9.48;3.60;;;;;;;-0.71;41.87;92497.28;2040684;70;20159;-70
2022/02/14 01:49:49;;;;;;;7.00;3.13;;;;;;;-0.93;42.73;92493.06;2040756;70;20151;-69
2022/02/14 01:52:15;;;;;;;4.75;2.90;;;;;;;-0.86;42.60;92484.09;2043390;70;20185;-74
2022/02/14 01:54:43;;;;;;;6.30;2.90;;;;;;;-1.01;43.19;92487.47;2044140;70;20151;-73
2022/02/14 01:57:11;;;;;;;5.93;2.85;;;;;;;-0.99;42.94;92493.22;2043915;70;20181;-77
2022/02/14 01:59:38;;;;;;;5.32;2.75;;;;;;;-0.94;41.65;92484.03;2044081;70;20183;-78
2022/02/14 02:02:06;;;;;;;4.97;2.70;;;;;;;-0.91;42.25;92487.75;2043842;70;20143;-69
2022/02/14 02:04:34;;;;;;;8.35;3.15;;;;;;;-0.92;41.14;92486.25;2043939;70;20618;-71
2022/02/14 02:06:59;;;;;;;6.07;2.90;;;;;;;-0.87;41.28;92490.88;2043845;70;20155;-73
2022/02/14 02:09:25;;;;;;;4.57;2.60;;;;;;;-0.82;41.26;92485.22;2043927;70;20158;-68
2022/02/14 02:14:36;;;;;;;4.30;2.60;;;;;;;-0.74;40.93;92479.72;2043980;70;20197;-75
2022/02/14 02:17:02;;;;;;;4.95;2.78;;;;;;;-0.81;41.08;92480.44;2044115;70;20146;-74
2022/02/14 02:19:28;;;;;;;5.20;2.42;;;;;;;-0.87;41.43;92483.34;2044320;70;20163;-75
2022/02/14 02:21:53;;;;;;;7.03;2.78;;;;;;;-0.86;40.88;92479.31;2044507;70;20756;-68
2022/02/14 02:24:21;;;;;;;4.55;2.60;;;;;;;-0.75;40.72;92480.28;2047667;70;20162;-68
2022/02/14 02:26:54;;;;;;;8.40;3.40;;;;;;;-1.06;42.06;92478.03;2048616;70;20245;-67
2022/02/14 02:29:20;;;;;;;7.72;3.50;;;;;;;-1.04;41.92;92475.50;2048464;70;20649;-67
2022/02/14 02:31:46;;;;;;;7.53;3.45;;;;;;;-1.12;42.55;92479.47;2048409;70;20662;-70
2022/02/14 02:34:11;;;;;;;7.20;3.20;;;;;;;-1.10;42.41;92476.91;2048615;70;20143;-75
2022/02/14 02:36:53;;;;;;;6.88;3.15;;;;;;;-1.23;42.91;92477.00;2048768;70;20138;-71
2022/02/14 02:39:20;;;;;;;4.85;2.50;;;;;;;-1.21;43.26;92471.66;2048530;70;20146;-69
2022/02/14 02:41:46;;;;;;;6.10;2.53;;;;;;;-1.22;43.69;92481.97;2048702;70;20625;-69
2022/02/14 02:44:13;;;;;;;4.18;2.42;;;;;;;-1.14;42.08;92482.03;2048621;70;20162;-71
2022/02/14 02:46:39;;;;;;;6.40;2.70;;;;;;;-1.08;41.90;92482.63;2048472;70;20162;-72
2022/02/14 02:49:15;;;;;;;5.13;2.50;;;;;;;-1.13;41.92;92475.22;2048600;70;20160;-74
2022/02/14 02:51:42;;;;;;;6.82;2.53;;;;;;;-1.09;41.96;92481.16;2048476;70;20233;-78
2022/02/14 02:54:08;;;;;;;5.22;2.65;;;;;;;-1.04;41.93;92481.00;2048517;70;20150;-75
2022/02/14 02:56:36;;;;;;;4.05;2.33;;;;;;;-1.14;41.97;92484.81;2048649;70;20644;-69
2022/02/14 02:59:02;;;;;;;4.88;2.80;;;;;;;-1.28;41.82;92484.13;2048593;70;20147;-73
2022/02/14 03:01:28;;;;;;;6.00;2.97;;;;;;;-1.23;42.10;92499.09;2048325;70;20173;-73
2022/02/14 03:03:54;;;;;;;4.35;2.70;;;;;;;-1.19;42.18;92491.19;2045292;70;20525;-70
2022/02/14 03:06:20;;;;;;;3.83;2.30;;;;;;;-1.03;42.35;92496.31;2048393;70;20163;-68
2022/02/14 03:08:46;;;;;;;4.90;2.38;;;;;;;-1.17;42.56;92492.13;2048599;70;20587;-68
2022/02/14 03:11:13;;;;;;;5.38;3.00;;;;;;;-1.30;41.69;92498.47;2048526;70;20613;-72
2022/02/14 03:13:38;;;;;;;7.90;3.42;;;;;;;-1.10;41.81;92502.53;2048584;70;20145;-72
2022/02/14 03:16:04;;;;;;;6.93;3.40;;;;;;;-1.32;42.16;92492.75;2048407;70;20158;-75
2022/02/14 03:18:30;;;;;;;8.63;2.95;;;;;;;-1.54;42.72;92491.25;2048519;70;20199;-69
2022/02/14 03:20:55;;;;;;;5.88;2.90;;;;;;;-1.48;43.16;92495.91;2048935;70;20146;-73
2022/02/14 03:23:21;;;;;;;5.10;2.80;;;;;;;-1.37;42.52;92490.13;2048467;70;20233;-78
2022/02/14 03:25:46;;;;;;;5.32;2.65;;;;;;;-1.36;41.79;92495.13;2048584;70;20154;-73
2022/02/14 03:28:12;;;;;;;3.83;2.47;;;;;;;-1.20;42.20;92487.69;2048534;70;20138;-72
2022/02/14 03:30:38;;;;;;;4.97;2.80;;;;;;;-1.19;42.25;92488.44;2045157;70;20526;-75
2022/02/14 03:33:03;;;;;;;4.57;2.78;;;;;;;-1.32;42.24;92486.50;2048445;70;20135;-76
2022/02/14 03:35:29;;;;;;;4.30;2.65;;;;;;;-1.34;43.04;92487.00;2048504;70;20162;-70
2022/02/14 03:37:56;;;;;;;9.20;2.70;;;;;;;-1.30;42.05;92484.66;2048469;70;20150;-68
2022/02/14 03:40:22;;;;;;;3.97;2.50;;;;;;;-1.25;42.24;92482.31;2048423;70;20218;-71
2022/02/14 03:42:48;;;;;;;9.13;2.50;;;;;;;-1.23;41.48;92477.75;2049980;70;20253;-69
2022/02/14 03:45:14;;;;;;;4.13;2.47;;;;;;;-1.25;41.98;92474.75;2049612;70;20142;-70
2022/02/14 03:47:39;;;;;;;5.32;2.50;;;;;;;-1.15;41.51;92486.81;2051572;70;20172;-70
2022/02/14 03:50:06;;;;;;;4.22;2.40;;;;;;;-1.13;41.43;92489.78;2051848;70;20601;-71
2022/02/14 03:52:31;;;;;;;6.55;3.10;;;;;;;-1.45;41.52;92487.31;2051587;70;20498;-71
2022/02/14 03:54:57;;;;;;;6.03;2.97;;;;;;;-1.46;41.57;92485.81;2051296;70;20157;-75
2022/02/14 03:57:23;;;;;;;10.60;4.38;;;;;;;-1.61;42.00;92488.41;2051833;70;20142;-80
2022/02/14 03:59:48;;;;;;;4.40;2.80;;;;;;;-1.39;41.54;92489.91;2051650;70;20154;-72
2022/02/14 04:02:14;;;;;;;4.85;2.90;;;;;;;-1.32;41.61;92495.53;2051451;70;20232;-76
2022/02/14 04:04:40;;;;;;;6.28;2.92;;;;;;;-1.20;41.16;92489.72;2051814;70;20146;-72
2022/02/14 04:07:06;;;;;;;6.32;3.25;;;;;;;-1.18;40.97;92495.47;2051787;70;20135;-76
2022/02/14 04:09:31;;;;;;;6.15;3.10;;;;;;;-1.29;40.81;92488.91;2051896;70;20165;-69
2022/02/14 04:11:57;;;;;;;4.53;2.83;;;;;;;-1.14;40.65;92487.56;2051767;70;20150;-74
2022/02/14 04:14:22;;;;;;;7.38;2.90;;;;;;;-1.11;40.61;92492.72;2048515;70;20220;-69
2022/02/14 04:16:48;;;;;;;5.03;3.05;;;;;;;-1.39;41.23;92485.13;2051749;70;20146;-72
2022/02/14 04:19:13;;;;;;;6.15;2.83;;;;;;;-1.22;40.93;92490.25;2051775;70;20174;-77
2022/02/14 04:21:39;;;;;;;7.30;3.28;;;;;;;-1.55;41.62;92491.81;2051839;70;20601;-73
2022/02/14 04:24:05;;;;;;;6.20;3.50;;;;;;;-1.41;41.77;92487.72;2048508;70;20211;-71
2022/02/14 04:26:30;;;;;;;5.50;3.17;;;;;;;-1.48;42.02;92488.38;2051811;70;20189;-74
2022/02/14 04:28:56;;;;;;;4.38;2.80;;;;;;;-1.41;41.36;92484.94;2051799;70;20154;-74
2022/02/14 04:31:21;;;;;;;4.65;2.55;;;;;;;-1.50;41.89;92481.91;2051607;70;20237;-77
2022/02/14 04:33:47;;;;;;;6.18;2.30;;;;;;;-1.25;41.57;92483.03;2051719;70;20142;-75
2022/02/14 04:36:13;;;;;;;5.72;2.35;;;;;;;-1.20;41.57;92484.19;2051824;70;20178;-71
2022/02/14 04:38:38;;;;;;;5.80;2.38;;;;;;;-1.32;42.06;92492.03;2051599;70;20173;-74
2022/02/14 04:41:04;;;;;;;6.32;2.60;;;;;;;-1.38;41.46;92494.16;2048423;70;20617;-75
2022/02/14 04:43:29;;;;;;;5.30;2.75;;;;;;;-1.31;41.83;92496.25;2051836;70;20165;-75
2022/02/14 04:45:55;;;;;;;4.45;2.63;;;;;;;-1.35;41.45;92498.63;2051842;70;20138;-75
2022/02/14 04:48:21;;;;;;;6.65;3.20;;;;;;;-1.73;42.42;92496.22;2051987;70;20146;-69
2022/02/14 04:50:47;;;;;;;6.68;3.15;;;;;;;-1.52;41.92;92504.53;2048700;70;20234;-77
2022/02/14 04:53:12;;;;;;;7.28;3.20;;;;;;;-1.53;42.65;92494.75;2051950;70;20134;-73
2022/02/14 04:55:38;;;;;;;8.82;4.95;;;;;;;-1.67;42.65;92501.63;2052036;70;20517;-77
2022/02/14 04:58:03;;;;;;;8.98;4.07;;;;;;;-1.63;42.52;92502.78;2052002;70;20138;-69
2022/02/14 05:00:31;;;;;;;5.07;2.88;;;;;;;-1.46;42.27;92509.94;2051909;70;20229;-76
2022/02/14 05:02:57;;;;;;;5.43;2.90;;;;;;;-1.58;41.91;92498.41;2051823;70;20185;-70
2022/02/14 05:05:22;;;;;;;6.10;3.40;;;;;;;-1.60;42.29;92496.19;2051974;70;20131;-74
2022/02/14 05:07:50;;;;;;;5.72;2.85;;;;;;;-1.74;42.47;92503.03;2051981;70;20153;-72
2022/02/14 05:10:17;;;;;;;5.38;2.90;;;;;;;-1.63;41.93;92494.50;2050222;70;20154;-69
2022/02/14 05:12:42;;;;;;;5.63;2.83;;;;;;;-1.48;41.52;92496.66;2051660;70;20177;-71
2022/02/14 05:15:09;;;;;;;7.05;2.90;;;;;;;-1.48;41.66;92501.44;2050687;70;20494;-74
2022/02/14 05:17:35;;;;;;;4.43;2.50;;;;;;;-1.53;41.93;92503.03;2051808;70;20619;-69
2022/02/14 05:20:04;;;;;;;6.10;2.72;;;;;;;-1.63;43.32;92488.97;2049582;70;20582;-68
2022/02/14 05:22:29;;;;;;;20.30;8.88;;;;;;;-1.90;43.74;92490.34;2051692;70;20150;-68
2022/02/14 05:24:55;;;;;;;19.33;8.70;;;;;;;-1.94;43.92;92490.66;2049218;70;20165;-75
2022/02/14 05:27:21;;;;;;;18.65;8.98;;;;;;;-1.78;43.45;92491.59;2048604;70;20146;-73
2022/02/14 05:29:47;;;;;;;13.60;6.13;;;;;;;-2.19;45.16;92500.50;2048472;70;20146;-70
2022/02/14 05:32:13;;;;;;;15.07;6.20;;;;;;;-1.97;44.68;92497.28;2049239;70;20599;-72
2022/02/14 05:34:38;;;;;;;11.18;6.10;;;;;;;-2.06;45.99;92497.72;2050818;70;20158;-69
2022/02/14 05:37:05;;;;;;;9.70;5.47;;;;;;;-1.96;44.54;92500.75;2047357;70;20178;-69
2022/02/14 05:39:30;;;;;;;11.98;5.40;;;;;;;-1.95;44.55;92502.25;2048413;70;20150;-68
2022/02/14 05:41:56;;;;;;;6.85;2.80;;;;;;;-1.88;42.71;92501.56;2048507;70;20173;-68
2022/02/14 05:44:22;;;;;;;3.53;2.40;;;;;;;-1.71;42.54;92503.97;2048408;70;20517;-76
2022/02/14 05:46:47;;;;;;;4.35;2.30;;;;;;;-1.68;42.25;92503.63;2048328;70;20582;-75
2022/02/14 05:49:14;;;;;;;6.85;2.80;;;;;;;-1.60;41.81;92509.97;2048354;70;20238;-69
2022/02/14 05:51:39;;;;;;;7.20;2.78;;;;;;;-1.52;41.87;92510.03;2048179;70;20229;-71
2022/02/14 05:54:06;;;;;;;4.72;2.92;;;;;;;-1.59;41.52;92508.69;2052222;70;20197;-69
2022/02/14 05:56:32;;;;;;;5.60;3.00;;;;;;;-1.52;41.88;92504.53;2052229;70;20130;-69
2022/02/14 05:58:59;;;;;;;6.95;2.70;;;;;;;-1.58;42.27;92501.91;2052137;70;20300;-74
2022/02/14 06:01:25;;;;;;;4.78;2.67;;;;;;;-1.55;41.79;92508.38;2052014;70;20177;-76
2022/02/14 06:03:51;;;;;;;4.53;2.67;;;;;;;-1.64;42.23;92503.31;2052267;70;20230;-71
2022/02/14 06:06:17;;;;;;;33.30;12.88;;;;;;;-1.55;41.77;92505.63;2051754;70;20142;-72
2022/02/14 06:08:42;;;;;;;8.07;3.50;;;;;;;-1.84;42.97;92505.47;2051880;70;20216;-72
2022/02/14 06:11:08;;;;;;;12.75;4.60;;;;;;;-2.08;43.63;92512.03;2051953;70;20486;-68
2022/02/14 06:13:34;;;;;;;13.57;4.68;;;;;;;-1.93;43.25;92513.47;2054394;70;20173;-68
2022/02/14 06:16:00;;;;;;;14.52;8.43;;;;;;;-1.88;43.28;92507.84;2051978;70;20228;-70
2022/02/14 06:18:25;;;;;;;12.63;5.90;;;;;;;-1.91;43.61;92500.63;2052063;70;20229;-68
2022/02/14 06:20:51;;;;;;;10.95;4.10;;;;;;;-1.96;44.64;92507.03;2051522;70;20135;-68
2022/02/14 06:23:17;;;;;;;13.23;4.60;;;;;;;-1.93;44.58;92505.19;2052061;70;20138;-68
2022/02/14 06:25:43;;;;;;;8.77;4.50;;;;;;;-1.92;44.91;92506.69;2051889;70;20233;-67
2022/02/14 06:28:08;;;;;;;17.60;6.13;;;;;;;-2.08;45.30;92503.00;2051968;70;20150;-67
2022/02/14 06:30:34;;;;;;;14.32;5.70;;;;;;;-2.06;44.83;92495.69;2052019;70;20166;-68
2022/02/14 06:33:00;;;;;;;19.42;5.90;;;;;;;-2.02;44.11;92502.88;2052111;69;20239;-71
2022/02/14 06:35:26;;;;;;;16.00;7.18;;;;;;;-2.05;44.29;92508.22;2048775;70;20217;-74
2022/02/14 06:37:52;;;;;;;18.25;6.85;;;;;;;-2.08;44.44;92517.53;2052007;70;20153;-73
2022/02/14 06:40:18;;;;;;;24.15;8.60;;;;;;;-2.11;45.03;92518.63;2051450;70;20141;-72
2022/02/14 06:42:49;;;;;;;37.83;9.48;;;;;;;-2.39;45.77;92512.91;2051970;70;20198;-68
2022/02/14 06:45:17;;;;;;;30.00;9.45;;;;;;;-2.24;46.19;92510.38;2052027;70;20172;-70
2022/02/14 06:47:43;;;;;;;27.20;8.88;;;;;;;-2.25;45.17;92513.63;2051895;70;20166;-70
2022/02/14 06:50:09;;;;;;;27.65;9.02;;;;;;;-2.19;45.60;92506.75;2052006;70;20146;-69
2022/02/14 06:52:35;;;;;;;21.98;7.53;;;;;;;-2.07;45.07;92510.00;2051531;70;20206;-70
2022/02/14 06:55:01;;;;;;;20.52;7.78;;;;;;;-2.07;45.09;92512.75;2051973;70;20234;-70
2022/02/14 06:57:26;;;;;;;19.50;5.90;;;;;;;-2.00;44.10;92520.41;2052032;70;20590;-70
2022/02/14 06:59:52;;;;;;;12.38;4.82;;;;;;;-2.06;43.05;92523.28;2051941;70;20157;-68
2022/02/14 07:02:18;;;;;;;14.32;5.22;;;;;;;-2.08;43.01;92516.81;2050855;70;20583;-68
2022/02/14 07:04:44;;;;;;;11.90;4.13;;;;;;;-2.03;42.48;92515.94;2051992;70;20146;-69
2022/02/14 07:07:09;;;;;;;14.90;4.80;;;;;;;-1.93;43.37;92514.22;2051763;70;20629;-71
2022/02/14 07:09:35;;;;;;;9.35;4.35;;;;;;;-1.80;42.04;92521.72;2051723;70;20174;-78
2022/02/14 07:12:01;;;;;;;9.80;4.57;;;;;;;-1.77;42.02;92525.44;2052195;70;20158;-79
2022/02/14 07:14:26;;;;;;;16.42;6.88;;;;;;;-1.79;42.33;92517.69;2048765;70;20138;-70
2022/02/14 07:16:54;;;;;;;17.05;6.15;;;;;;;-1.65;42.18;92513.63;2051924;70;20150;-70
2022/02/14 07:19:20;;;;;;;13.82;6.72;;;;;;;-1.67;42.15;92516.16;2051956;70;20142;-70
2022/02/14 07:21:46;;;;;;;13.55;5.35;;;;;;;-1.63;42.38;92499.28;2051614;70;20199;-70
2022/02/14 07:24:11;;;;;;;19.40;7.35;;;;;;;-1.98;43.51;92506.78;2051218;70;20241;-71
2022/02/14 07:26:37;;;;;;;20.25;7.57;;;;;;;-1.86;43.25;92507.31;2051906;70;20177;-70
2022/02/14 07:29:03;;;;;;;16.35;7.25;;;;;;;-1.73;43.53;92514.81;2051918;70;20244;-70
2022/02/14 07:31:29;;;;;;;15.93;7.68;;;;;;;-1.76;43.81;92510.34;2051467;70;20269;-74
2022/02/14 07:33:55;;;;;;;15.13;5.90;;;;;;;-1.69;42.59;92509.72;2052129;70;20161;-74
2022/02/14 07:36:21;;;;;;;19.25;7.18;;;;;;;-1.96;42.49;92509.78;2051922;70;20146;-73
2022/02/14 07:38:47;;;;;;;17.83;7.60;;;;;;;-1.73;42.17;92512.78;2051887;70;20138;-73
2022/02/14 07:41:12;;;;;;;18.73;7.45;;;;;;;-1.83;42.02;92509.00;2051913;70;20615;-74
2022/02/14 07:43:38;;;;;;;25.58;10.23;;;;;;;-1.76;42.16;92508.34;2051863;70;20142;-76
2022/02/14 07:46:03;;;;;;;26.50;9.65;;;;;;;-1.82;42.56;92507.72;2051323;70;20145;-76
2022/02/14 07:48:29;;;;;;;27.27;9.68;;;;;;;-1.55;42.23;92502.84;2051903;70;20146;-70
2022/02/14 07:50:55;;;;;;;20.63;8.18;;;;;;;-1.69;42.66;92502.16;2051914;70;20165;-71
2022/02/14 07:53:20;;;;;;;20.67;8.15;;;;;;;-1.56;42.36;92504.88;2051690;70;20157;-70
2022/02/14 07:55:46;;;;;;;22.38;9.18;;;;;;;-1.54;42.88;92496.03;2051808;70;20147;-71
2022/02/14 07:58:11;;;;;;;18.90;7.97;;;;;;;-1.45;42.56;92483.81;2051831;70;20146;-71
2022/02/14 08:00:37;;;;;;;22.00;8.20;;;;;;;-1.40;42.83;92480.91;2051113;70;20162;-74
2022/02/14 08:03:03;;;;;;;12.82;5.43;;;;;;;-1.27;42.27;92482.13;2051854;70;20150;-74
2022/02/14 08:05:29;;;;;;;14.38;5.68;;;;;;;-1.17;42.49;92477.59;2051881;70;20684;-79
2022/02/14 08:07:54;;;;;;;14.82;5.75;;;;;;;-1.19;42.26;92477.38;2051924;70;20712;-70
2022/02/14 08:10:20;;;;;;;31.48;9.95;;;;;;;-1.12;41.81;92473.94;2051947;70;20149;-71
2022/02/14 08:12:46;;;;;;;21.85;10.23;;;;;;;-1.32;42.00;92465.13;2051885;70;20182;-76
2022/02/14 08:15:11;;;;;;;15.82;7.00;;;;;;;-1.25;42.43;92472.00;2048445;70;20146;-71
2022/02/14 08:17:37;;;;;;;16.88;7.35;;;;;;;-1.15;42.27;92470.22;2051297;70;20696;-70
2022/02/14 08:20:04;;;;;;;15.15;6.45;;;;;;;-1.08;42.58;92469.56;2051194;70;20149;-70
2022/02/14 08:22:30;;;;;;;9.13;5.47;;;;;;;-1.21;42.14;92460.63;2051992;70;20177;-69
2022/02/14 08:24:57;;;;;;;11.32;6.65;;;;;;;-1.03;41.72;92460.38;2051800;70;20142;-69
2022/02/14 08:27:24;;;;;;;13.32;6.72;;;;;;;-0.98;41.92;92469.06;2048491;70;20146;-69
2022/02/14 08:29:51;;;;;;;11.10;5.22;;;;;;;-1.16;41.29;92454.22;2051635;70;20143;-69
2022/02/14 08:32:17;;;;;;;14.65;5.00;;;;;;;-1.18;41.27;92442.97;2051674;70;20147;-73
2022/02/14 08:34:43;;;;;;;12.70;4.80;;;;;;;-1.00;40.93;92447.53;2051818;70;20177;-70
2022/02/14 08:37:11;;;;;;;12.82;5.72;;;;;;;-0.75;41.06;92442.31;2051745;70;20237;-72
2022/02/14 08:39:37;;;;;;;17.60;7.60;;;;;;;-0.33;42.33;92442.91;2051797;70;20153;-69
2022/02/14 08:42:03;;;;;;;21.05;8.70;;;;;;;-0.17;42.39;92442.97;2051759;70;20135;-69
2022/02/14 08:44:30;;;;;;;16.02;7.72;;;;;;;0.22;42.21;92439.78;2051316;70;20202;-69
2022/02/14 08:46:59;;;;;;;15.40;8.20;;;;;;;0.71;41.36;92435.97;2051741;70;20250;-69
2022/02/14 08:49:27;;;;;;;16.98;7.38;;;;;;;0.89;41.15;92436.16;2050282;70;20237;-69
2022/02/14 08:51:54;;;;;;;13.80;6.78;;;;;;;1.05;40.04;92431.34;2050883;70;20158;-71
2022/02/14 08:54:20;;;;;;;26.00;6.93;;;;;;;1.52;39.91;92437.00;2054035;70;20228;-72
2022/02/14 08:56:46;;;;;;;23.95;8.65;;;;;;;2.01;39.80;92432.94;2051780;70;20233;-71
2022/02/14 08:59:14;;;;;;;24.40;7.57;;;;;;;2.34;38.62;92427.44;2051590;70;20586;-73
2022/02/14 09:01:40;;;;;;;21.00;7.88;;;;;;;2.77;38.76;92426.22;2051054;70;20237;-73
2022/02/14 09:04:05;;;;;;;18.15;6.75;;;;;;;2.82;37.27;92423.78;2051726;70;20261;-71
2022/02/14 09:06:31;;;;;;;16.40;7.05;;;;;;;2.89;36.62;92420.22;2051714;70;20602;-72
2022/02/14 09:08:57;;;;;;;13.77;5.75;;;;;;;3.44;36.79;92413.63;2051721;70;20174;-73
2022/02/14 09:11:22;;;;;;;12.23;6.50;;;;;;;4.17;37.36;92410.38;2051507;70;20149;-73
2022/02/14 09:13:48;;;;;;;11.20;5.40;;;;;;;4.24;35.75;92409.53;2050738;70;20605;-72
2022/02/14 09:16:14;;;;;;;18.42;6.22;;;;;;;4.42;35.96;92408.19;2050185;70;20622;-70
2022/02/14 09:18:41;;;;;;;13.52;6.32;;;;;;;4.91;33.76;92403.59;2051491;70;20185;-70
2022/02/14 09:21:08;;;;;;;12.65;6.20;;;;;;;5.29;34.43;92393.84;2051127;70;20146;-72
2022/02/14 09:23:34;;;;;;;10.80;5.40;;;;;;;5.58;33.41;92399.47;2048464;70;20212;-69
2022/02/14 09:26:00;;;;;;;36.50;14.30;;;;;;;4.99;32.99;92392.28;2051700;70;20175;-73
2022/02/14 09:28:26;;;;;;;27.40;12.90;;;;;;;4.91;33.60;92386.09;2051979;70;20142;-74
2022/02/14 09:30:52;;;;;;;45.95;19.50;;;;;;;5.46;33.31;92396.53;2051855;70;20629;-70
2022/02/14 09:33:17;;;;;;;19.15;7.18;;;;;;;5.38;32.29;92384.75;2052186;70;20130;-71
2022/02/14 09:35:43;;;;;;;16.98;7.63;;;;;;;6.30;33.19;92385.81;2052244;70;20154;-74
2022/02/14 09:38:10;;;;;;;22.33;9.27;;;;;;;6.15;33.82;92386.88;2052195;70;20146;-72
2022/02/14 09:40:36;;;;;;;18.65;5.85;;;;;;;6.04;31.03;92381.88;2052148;69;20231;-74
2022/02/14 09:43:02;;;;;;;19.95;6.43;;;;;;;6.42;31.00;92374.78;2054406;70;20162;-75
2022/02/14 09:45:30;;;;;;;12.40;6.10;;;;;;;7.22;31.85;92372.56;2054389;70;20576;-72
2022/02/14 09:47:57;;;;;;;16.92;5.90;;;;;;;7.17;29.50;92370.81;2052046;70;20297;-76
2022/02/14 09:50:24;;;;;;;19.50;7.63;;;;;;;7.30;28.49;92368.25;2051576;70;20154;-73
2022/02/14 09:52:49;;;;;;;25.63;10.70;;;;;;;7.23;29.73;92363.56;2052289;70;20150;-69
2022/02/14 09:55:15;;;;;;;16.63;8.13;;;;;;;7.84;29.28;92361.25;2052161;70;20562;-70
2022/02/14 09:57:41;;;;;;;12.77;5.30;;;;;;;8.80;28.11;92361.72;2048930;70;20153;-69
2022/02/14 10:00:08;;;;;;;7.18;3.85;;;;;;;8.22;27.36;92359.47;2052188;70;20150;-70
2022/02/14 10:02:35;;;;;;;15.35;8.73;;;;;;;7.89;27.14;92357.38;2051967;70;20250;-73
2022/02/14 10:05:31;;;;;;;16.40;10.38;;;;;;;8.96;28.13;92348.66;2048840;70;20233;-76
2022/02/14 10:08:00;;;;;;;7.35;3.25;;;;;;;9.48;26.87;92339.09;2051862;70;20143;-75
2022/02/14 10:10:26;;;;;;;9.95;4.20;;;;;;;9.91;25.46;92339.50;2052083;70;20241;-76
2022/02/14 10:12:55;;;;;;;4.57;2.70;;;;;;;10.57;24.89;92329.09;2052233;70;20142;-75
2022/02/14 10:15:23;;;;;;;4.85;2.70;;;;;;;9.91;23.83;92327.53;2052180;70;20545;-73
2022/02/14 10:17:52;;;;;;;6.60;4.10;;;;;;;9.61;24.67;92323.69;2052038;70;20153;-72
2022/02/14 10:20:22;;;;;;;6.20;4.30;;;;;;;9.44;23.83;92316.41;2052163;70;20153;-77
2022/02/14 10:22:56;;;;;;;2.30;1.60;;;;;;;9.19;24.78;92313.50;2052184;70;20153;-76
2022/02/14 10:25:26;;;;;;;5.13;1.73;;;;;;;9.50;25.75;92313.22;2052151;70;20173;-76
2022/02/14 10:27:52;;;;;;;3.85;1.60;;;;;;;10.68;24.90;92317.78;2052225;70;20150;-72
2022/02/14 10:30:18;;;;;;;2.95;1.95;;;;;;;11.32;24.59;92312.66;2051613;70;20598;-77
2022/02/14 10:32:53;;;;;;;4.60;2.20;;;;;;;11.87;22.62;92310.56;2051923;70;20138;-69
2022/02/14 10:35:20;;;;;;;8.70;3.22;;;;;;;12.40;21.97;92303.91;2052035;70;20145;-71
2022/02/14 10:37:46;;;;;;;3.97;1.70;;;;;;;12.69;22.07;92303.16;2051892;70;20174;-72
2022/02/14 10:40:35;;;;;;;3.85;2.15;;;;;;;12.67;20.94;92294.59;2048807;70;20154;-69
2022/02/14 10:43:01;;;;;;;2.72;1.77;;;;;;;12.83;21.38;92295.34;2052395;70;20161;-70
2022/02/14 10:45:27;;;;;;;5.32;1.88;;;;;;;12.89;19.62;92289.25;2052042;69;20594;-70
2022/02/14 10:47:52;;;;;;;7.18;2.40;;;;;;;12.69;20.79;92280.56;2052152;70;20158;-69
2022/02/14 10:50:21;;;;;;;10.02;4.40;;;;;;;13.97;19.73;92276.97;2051973;70;20138;-70
2022/02/14 10:52:55;;;;;;;4.65;3.08;;;;;;;13.88;18.44;92278.75;2054208;70;20213;-70
2022/02/14 10:55:27;;;;;;;3.70;2.30;;;;;;;14.01;19.41;92268.66;2052034;70;20534;-77
2022/02/14 10:57:55;;;;;;;10.45;3.70;;;;;;;14.55;19.11;92272.25;2052003;70;20621;-74
2022/02/14 11:00:24;;;;;;;4.15;2.40;;;;;;;14.18;18.94;92261.56;2054104;69;20170;-76
2022/02/14 11:02:52;;;;;;;12.20;5.13;;;;;;;13.86;19.14;92258.84;2051004;69;20162;-74
2022/02/14 11:05:19;;;;;;;7.10;3.80;;;;;;;15.41;19.44;92253.53;2050318;70;20595;-71
2022/02/14 11:07:46;;;;;;;8.10;4.00;;;;;;;16.20;18.80;92243.44;2053613;70;20146;-73
2022/02/14 11:10:15;;;;;;;11.43;4.20;;;;;;;16.98;18.51;92235.97;2051923;70;20150;-78
2022/02/14 11:13:03;;;;;;;10.65;4.65;;;;;;;18.02;18.14;92232.44;2051979;70;20158;-77
2022/02/14 11:15:35;;;;;;;6.55;3.40;;;;;;;16.81;16.45;92219.06;2051970;70;20233;-78
2022/02/14 11:18:04;;;;;;;4.60;3.17;;;;;;;17.06;16.48;92215.59;2051878;70;20161;-72
2022/02/14 11:20:30;;;;;;;12.02;7.95;;;;;;;17.60;15.87;92206.41;2051926;70;20228;-73
2022/02/14 11:22:58;;;;;;;8.05;4.93;;;;;;;18.84;15.52;92206.66;2051947;70;20617;-75
2022/02/14 11:25:45;;;;;;;8.07;4.40;;;;;;;16.45;16.00;92202.34;2051950;70;20158;-75
2022/02/14 11:28:17;;;;;;;6.35;4.13;;;;;;;19.96;15.51;92206.09;2048594;70;20150;-70
2022/02/14 11:31:09;;;;;;;4.70;2.83;;;;;;;20.49;14.93;92192.72;2051767;70;20150;-70
2022/02/14 11:33:36;;;;;;;6.32;3.60;;;;;;;23.62;14.55;92190.94;2049930;70;20241;-74